createdAt,value
2023-04-25T00:00:03.173Z,100
2023-04-25T00:05:04.403Z,100
2023-04-25T00:10:03.437Z,100
2023-04-25T00:15:03.216Z,100
2023-04-25T00:20:03.067Z,100
2023-04-25T00:25:03.079Z,100
2023-04-25T00:30:02.860Z,100
2023-04-25T00:35:03.536Z,100
2023-04-25T00:40:03.388Z,100
2023-04-25T00:45:03.628Z,100
2023-04-25T00:50:03.038Z,100
2023-04-25T00:55:02.886Z,100
2023-04-25T01:00:02.662Z,98.96
2023-04-25T01:05:03.460Z,98
2023-04-25T01:10:03.329Z,99.26
2023-04-25T01:15:03.651Z,99.81
2023-04-25T01:20:02.754Z,100
2023-04-25T01:25:03.612Z,100
2023-04-25T01:30:03.113Z,100
2023-04-25T01:35:02.964Z,100
2023-04-25T01:40:02.840Z,100
2023-04-25T01:45:03.772Z,100
2023-04-25T01:50:03.328Z,100
2023-04-25T01:55:03.669Z,100
2023-04-25T02:00:02.929Z,100
2023-04-25T02:05:02.693Z,100
2023-04-25T02:10:02.679Z,100
2023-04-25T02:15:03.182Z,100
2023-04-25T02:20:03.006Z,100
2023-04-25T02:25:03.276Z,100
2023-04-25T02:30:03.180Z,100
2023-04-25T02:35:02.903Z,100
2023-04-25T02:40:02.560Z,100
2023-04-25T02:45:03.411Z,100
2023-04-25T02:50:03.112Z,100
2023-04-25T02:55:03.318Z,100
2023-04-25T03:00:03.579Z,100
2023-04-25T03:05:03.288Z,100
2023-04-25T03:10:02.972Z,100
2023-04-25T03:15:02.816Z,100
2023-04-25T03:20:02.741Z,100
2023-04-25T03:25:03.364Z,100
2023-04-25T03:30:03.366Z,100
2023-04-25T03:35:03.069Z,100
2023-04-25T03:40:02.734Z,100
2023-04-25T03:45:03.652Z,100
2023-04-25T03:50:03.316Z,100
2023-04-25T03:55:03.315Z,100
2023-04-25T04:00:03.044Z,99.61
2023-04-25T04:05:03.422Z,99.76
2023-04-25T04:10:02.608Z,99.92
2023-04-25T04:15:03.390Z,100
2023-04-25T04:20:03.115Z,100
2023-04-25T04:25:03.064Z,100
2023-04-25T04:30:03.492Z,100
2023-04-25T04:35:02.681Z,100
2023-04-25T04:40:02.859Z,100
2023-04-25T04:45:02.667Z,97.81
2023-04-25T04:50:03.592Z,95.52
2023-04-25T04:55:03.787Z,92.33
2023-04-25T05:00:03.091Z,93.6
2023-04-25T05:05:02.942Z,94.35
2023-04-25T05:10:02.900Z,94.7
2023-04-25T05:15:02.914Z,95.54
2023-04-25T05:20:02.612Z,95.32
2023-04-25T05:25:03.369Z,97.62
2023-04-25T05:30:03.089Z,97.02
2023-04-25T05:35:03.441Z,92.78
2023-04-25T05:40:03.423Z,92.51
2023-04-25T05:45:03.365Z,92.46
2023-04-25T05:50:03.135Z,91.23
2023-04-25T05:55:03.359Z,89.15
2023-04-25T06:00:02.807Z,87.96
2023-04-25T06:05:03.719Z,87.67
2023-04-25T06:10:03.520Z,84.41
2023-04-25T06:15:28.382Z,86.13
2023-04-25T06:20:07.094Z,85.72
2023-04-25T06:25:02.883Z,84.14
2023-04-25T06:30:02.720Z,84.92
2023-04-25T06:35:03.322Z,85.35
2023-04-25T06:40:03.055Z,85.42
2023-04-25T06:45:02.828Z,84.51
2023-04-25T06:50:03.509Z,82.49
2023-04-25T06:55:03.724Z,85.38
2023-04-25T07:00:02.753Z,87
2023-04-25T07:05:02.707Z,86.14
2023-04-25T07:10:03.566Z,89
2023-04-25T07:15:03.288Z,85.73
2023-04-25T07:20:03.107Z,86.23
2023-04-25T07:25:02.802Z,87.8
2023-04-25T07:30:02.819Z,86.27
2023-04-25T07:35:03.523Z,88.97
2023-04-25T07:40:03.228Z,92.44
2023-04-25T07:45:03.247Z,90.4
2023-04-25T07:50:03.030Z,91.65
2023-04-25T07:55:02.852Z,89.33
2023-04-25T08:00:03.390Z,91.29
2023-04-25T08:05:04.054Z,90.46
2023-04-25T08:10:03.214Z,92.39
2023-04-25T08:15:02.949Z,92.86
2023-04-25T08:20:02.807Z,91.61
2023-04-25T08:25:03.212Z,92.68
2023-04-25T08:30:03.166Z,90.55
2023-04-25T08:35:02.901Z,85.24
2023-04-25T08:40:02.583Z,83.06
2023-04-25T08:45:07.029Z,76.49
2023-04-25T08:50:03.350Z,76.88
2023-04-25T08:55:03.907Z,73.45
2023-04-25T09:00:02.906Z,74.14
2023-04-25T09:05:03.553Z,73.65
2023-04-25T09:10:03.257Z,71.35
2023-04-25T09:15:03.009Z,69.13
2023-04-25T09:20:02.912Z,69.79
2023-04-25T09:25:03.063Z,69.83
2023-04-25T09:30:03.302Z,67.32
2023-04-25T09:35:02.999Z,70.14
2023-04-25T09:40:03.227Z,70.38
2023-04-25T09:45:03.583Z,65.48
2023-04-25T09:50:03.536Z,70.58
2023-04-25T09:55:03.720Z,71.05
2023-04-25T10:00:03.153Z,71.91
2023-04-25T10:05:03.563Z,74.96
2023-04-25T10:10:03.294Z,72.11
2023-04-25T10:15:03.084Z,72.25
2023-04-25T10:20:02.932Z,72.71
2023-04-25T10:25:02.743Z,69.86
2023-04-25T10:30:03.462Z,70.02
2023-04-25T10:35:03.088Z,72.61
2023-04-25T10:40:02.924Z,70.14
2023-04-25T10:45:02.830Z,68.46
2023-04-25T10:50:02.232Z,65.51
2023-04-25T10:55:03.900Z,62.65
2023-04-25T11:00:02.710Z,65.46
2023-04-25T11:05:03.414Z,66.99
2023-04-25T11:10:03.187Z,69.5
2023-04-25T11:15:02.911Z,65.38
2023-04-25T11:20:02.922Z,61.79
2023-04-25T11:25:03.484Z,63.86
2023-04-25T11:30:03.239Z,67.13
2023-04-25T11:35:02.991Z,66.21
2023-04-25T11:40:03.033Z,66.6
2023-04-25T11:45:02.536Z,66.81
2023-04-25T11:50:02.712Z,66.86
2023-04-25T11:55:03.568Z,65.21
2023-04-25T12:00:03.554Z,62.61
2023-04-25T12:05:33.054Z,60.31
2023-04-25T12:10:03.536Z,61.28
2023-04-25T12:15:03.179Z,59.51
2023-04-25T12:20:03.144Z,62.31
2023-04-25T12:25:02.892Z,63.78
2023-04-25T12:30:02.881Z,60.25
2023-04-25T12:35:03.765Z,56.39
2023-04-25T12:40:03.587Z,59.31
2023-04-25T12:45:02.681Z,54.94
2023-04-25T12:50:03.516Z,56.7
2023-04-25T12:55:03.515Z,56.19
2023-04-25T13:00:02.968Z,57.38
2023-04-25T13:05:02.640Z,51.65
2023-04-25T13:10:03.326Z,54.35
2023-04-25T13:15:03.230Z,46.63
2023-04-25T13:20:02.900Z,52.2
2023-04-25T13:25:02.537Z,56.77
2023-04-25T13:30:03.466Z,57.01
2023-04-25T13:35:10.947Z,57.65
2023-04-25T13:40:03.006Z,54.62
2023-04-25T13:45:02.928Z,51.52
2023-04-25T13:50:02.963Z,50.14
2023-04-25T13:55:03.391Z,51.82
2023-04-25T14:00:03.597Z,47.18
2023-04-25T14:05:04.148Z,47.99
2023-04-25T14:10:03.131Z,56.77
2023-04-25T14:15:03.396Z,52.23
2023-04-25T14:20:03.359Z,55.7
2023-04-25T14:25:02.734Z,50.73
2023-04-25T14:30:02.933Z,54.98
2023-04-25T14:35:03.588Z,53.81
2023-04-25T14:40:02.818Z,54.04
2023-04-25T14:45:03.366Z,54.14
2023-04-25T14:50:03.464Z,54.92
2023-04-25T14:55:02.890Z,53.66
2023-04-25T15:00:03.399Z,52.07
2023-04-25T15:05:04.053Z,58.5
2023-04-25T15:10:03.314Z,58.25
2023-04-25T15:15:03.110Z,56.08
2023-04-25T15:20:02.806Z,53.5
2023-04-25T15:25:03.550Z,54.08
2023-04-25T15:30:03.402Z,57.16
2023-04-25T15:35:02.946Z,55.36
2023-04-25T15:40:02.824Z,55.39
2023-04-25T15:45:02.659Z,56.72
2023-04-25T15:50:02.563Z,56.64
2023-04-25T15:55:03.895Z,58.69
2023-04-25T16:00:03.581Z,57.24
2023-04-25T16:05:03.896Z,60.79
2023-04-25T16:10:03.010Z,59.01
2023-04-25T16:15:03.627Z,58.66
2023-04-25T16:20:03.329Z,58.95
2023-04-25T16:25:03.058Z,59.1
2023-04-25T16:30:02.257Z,60.61
2023-04-25T16:35:03.423Z,55.3
2023-04-25T16:40:03.734Z,56.78
2023-04-25T16:45:03.241Z,58.31
2023-04-25T16:50:02.906Z,62.06
2023-04-25T16:55:03.671Z,61.72
2023-04-25T17:00:03.499Z,60.84
2023-04-25T17:05:03.395Z,62.59
2023-04-25T17:10:04.196Z,66.08
2023-04-25T17:15:06.032Z,65.05
2023-04-25T17:20:02.837Z,68.6
2023-04-25T17:25:03.464Z,66.77
2023-04-25T17:30:03.566Z,66.6
2023-04-25T17:35:03.465Z,71.64
2023-04-25T17:40:03.241Z,70.47
2023-04-25T17:45:02.955Z,71.97
2023-04-25T17:50:02.566Z,70.45
2023-04-25T17:55:03.212Z,68.51
2023-04-25T18:00:06.298Z,66.31
2023-04-25T18:05:03.462Z,63.09
2023-04-25T18:10:03.485Z,62.21
2023-04-25T18:15:03.429Z,65.01
2023-04-25T18:20:03.096Z,64.28
2023-04-25T18:25:02.800Z,66.71
2023-04-25T18:30:03.613Z,68.81
2023-04-25T18:35:03.272Z,69.29
2023-04-25T18:40:03.013Z,69.98
2023-04-25T18:45:02.762Z,61.84
2023-04-25T18:50:03.106Z,66.15
2023-04-25T18:55:03.370Z,66.31
2023-04-25T19:00:02.981Z,66.62
2023-04-25T19:05:03.047Z,68.26
2023-04-25T19:10:02.826Z,69.84
2023-04-25T19:15:02.596Z,70.13
2023-04-25T19:20:03.515Z,72.88
2023-04-25T19:25:11.762Z,71.75
2023-04-25T19:30:02.611Z,73.97
2023-04-25T19:35:02.643Z,77.4
2023-04-25T19:40:03.331Z,80.91
2023-04-25T19:45:03.133Z,80.77
2023-04-25T19:50:03.018Z,82.29
2023-04-25T19:55:03.005Z,84.37
2023-04-25T20:00:02.957Z,83.6
2023-04-25T20:05:02.994Z,79.53
2023-04-25T20:10:03.431Z,77.73
2023-04-25T20:15:02.723Z,77.87
2023-04-25T20:20:03.520Z,78.18
2023-04-25T20:25:03.267Z,80.99
2023-04-25T20:30:03.234Z,86.52
2023-04-25T20:35:02.988Z,89.71
2023-04-25T20:40:02.901Z,92.13
2023-04-25T20:45:02.666Z,91.96
2023-04-25T20:50:03.301Z,90.33
2023-04-25T20:55:03.712Z,87.48
2023-04-25T21:00:03.153Z,86.5
2023-04-25T21:05:03.188Z,87.45
2023-04-25T21:10:02.652Z,87.34
2023-04-25T21:15:02.819Z,87.1
2023-04-25T21:20:02.888Z,85.64
2023-04-25T21:25:03.574Z,85.79
2023-04-25T21:30:02.789Z,86.64
2023-04-25T21:35:03.475Z,85.64
2023-04-25T21:40:03.380Z,86.06
2023-04-25T21:45:03.214Z,84.98
2023-04-25T21:50:02.829Z,86.03
2023-04-25T21:55:03.679Z,86.83
2023-04-25T22:00:02.686Z,85.64
2023-04-25T22:05:03.402Z,85.08
2023-04-25T22:10:03.136Z,86.1
2023-04-25T22:15:02.845Z,87.8
2023-04-25T22:20:03.505Z,88.85
2023-04-25T22:25:03.203Z,88.87
2023-04-25T22:30:02.681Z,88.82
2023-04-25T22:35:03.307Z,90.16
2023-04-25T22:40:02.980Z,90.12
2023-04-25T22:45:02.791Z,90.76
2023-04-25T22:50:03.551Z,89.54
2023-04-25T22:55:03.659Z,86.95
2023-04-25T23:00:03.397Z,89.7
2023-04-25T23:05:03.029Z,88.66
2023-04-25T23:10:02.952Z,90.72
2023-04-25T23:15:02.719Z,91.24
2023-04-25T23:20:02.790Z,93.23
2023-04-25T23:25:02.480Z,95.79
2023-04-25T23:30:02.716Z,96.45
2023-04-25T23:35:03.499Z,95.39
2023-04-25T23:40:03.351Z,95.95
2023-04-25T23:45:03.613Z,97.36
2023-04-25T23:50:02.798Z,97.61
2023-04-25T23:55:03.228Z,99.07
